Aviation Digital Data Service (ADDS)

Output produced by METARs form (2151 UTC 19 February 2018)
found at http://www.aviationweather.gov/adds/metars/
 
NSFA 192100Z 21005KT 9999 FEW020 BKN280 32/24 Q1006 NOSIG
NSFA 192000Z 00000KT 9999 FEW018CB SCT024 BKN280 30/24 Q1009 RM K CB TO NNW
NSFA 191900Z 15003KT 9999 FEW018CB SCT024 BKN280 27/24 Q1007 RM K CB TO NNW
NSFA 191600Z 00000KT 9999 FEW026 25/24 Q1005 NOSIG
NSFA 191500Z 00000KT 9999 FEW025 25/24 Q1005 NOSIG
NSFA 191300Z 00000KT 9999 FEW024 SCT045 BKN150 26/24 Q1005 NOSIG
NSFA 191100Z 11003KT 9999 FEW030 SCT290 26/25 Q1007 NOSIG
NSFA 191000Z 18003KT 9999 FEW030 26/25 Q1007 NOSIG
NSFA 190900Z 00000KT 9999 FEW030 26/25 Q1007 NOSIG
NSFA 190800Z 00000KT 9999 FEW028 26/25 Q1007
NSFA 190700Z VRB03KT 9999 FEW024 SCT290 27/25 Q1007
NSFA 190500Z 25008KT 9999 SCT022 30/24 Q1005 NOSIG
NSFA 190400Z VRB03KT 9999 SCT024 31/24 Q1005 NOSIG
NSFA 190300Z 30005KT 9999 SCT024 BKN120 30/25 Q1005 NOSIG
NSFA 190200Z 31007KT 250V010 9999 SCT024 30/26 Q1005
NSFA 190100Z VRB03KT 9999 FEW024 BKN120 31/25 Q1006 NOSIG
NSFA 182200Z 03004KT 9999 SCT024 30/24 Q1008 NOSIG